Sun Prairie, WI (53590)

8:12 AM CST on December 08, 2016 (GMT -0600)
Northside School | | Change Station

Elev 1007 ft 43.19 °N, 89.22 °W | Updated 5 seconds ago

Mostly Cloudy
Mostly Cloudy
14.3 °F
Feels Like 4 °F
N
6.9
Wind Variable Wind from West
Gusts 6.9 mph

Today
High -- | Low -- °F
--% Chance of Precip.
Yesterday
High -- | Low -- °F
Precip. -- in
Pressure 30.24 in
Visibility 9.0 miles
Clouds Few 1600 ft
Mostly Cloudy 2400 ft
Mostly Cloudy 2900 ft
Windchill 4 °F
Dew Point 9 °F
Humidity 79%
Rainfall 0.00 in
Snow Depth Not available.
7:16 AM 4:21 PM
Waxing Gibbous, 63% visible
METAR KMSN 081353Z 27010G16KT 240V310 9SM -SN FEW016 BKN024 BKN029 M09/M13 A3019 RMK AO2 SLP239 P0000 T10941133
Pressure 30.24 in
Visibility 9.0 miles
Clouds Few 1600 ft
Mostly Cloudy 2400 ft
Mostly Cloudy 2900 ft
Windchill 4 °F
Dew Point 9 °F
Humidity 79%
Rainfall 0.00 in
Snow Depth Not available.
7:16 AM 4:21 PM
Waxing Gibbous, 63% visible
METAR KMSN 081353Z 27010G16KT 240V310 9SM -SN FEW016 BKN024 BKN029 M09/M13 A3019 RMK AO2 SLP239 P0000 T10941133

10-Day Weather Forecast

Almanac

Astronomy

Dec. 08, 2016 Rise Set
Actual Time
Civil Twilight
Nautical Twilight
Astronomical Twilight
Moon
Length of Visible Light
Length of Day
Tomorrow will be .
, % of the Moon is Illuminated

Today's Extremes

State Highs State Lows

Community

WunderPhotos

Upload Photos

1,956,268 photos uploaded!

WunderBlog® & News

Nearby

Air Quality

  Air Quality AQ Index Pollutant
Not available.

Snow Depth

Station Depth Elevation

Earthquake Activity

City Distance Mag. Time & Date
Minimum magnitude displayed is 2.5.

Coastal Water Temperatures

Place Temperature

Stations

Nearby Weather Stations

Station Location Temp. Windchill Dew Point Humidity Wind Precip. Elev Updated Type
                   

Watches & Warnings

There are currently no watches in effect.